createdAt,value
2018-11-04T00:01:53.611Z,100022.05
2018-11-04T00:04:21.749Z,100015.31
2018-11-04T00:06:49.370Z,100008.00
2018-11-04T00:09:17.251Z,99999.15
2018-11-04T00:11:44.836Z,100008.72
2018-11-04T00:14:12.817Z,100007.78
2018-11-04T00:16:40.485Z,100000.96
2018-11-04T00:19:08.363Z,99997.30
2018-11-04T00:21:36.238Z,100002.04
2018-11-04T00:24:04.494Z,99994.78
2018-11-04T00:26:32.099Z,99994.24
2018-11-04T00:28:59.663Z,99995.53
2018-11-04T00:31:27.579Z,99987.23
2018-11-04T00:33:55.105Z,99989.08
2018-11-04T00:36:22.680Z,99988.02
2018-11-04T00:38:50.276Z,99983.94
2018-11-04T00:41:17.894Z,99976.51
2018-11-04T00:43:45.493Z,99974.31
2018-11-04T00:46:13.242Z,99975.00
2018-11-04T00:48:40.914Z,99980.22
2018-11-04T00:51:08.461Z,99974.88
2018-11-04T00:53:36.076Z,99967.65
2018-11-04T00:56:03.631Z,99967.31
2018-11-04T00:58:31.227Z,99971.98
2018-11-04T01:00:58.812Z,99962.87
2018-11-04T01:03:26.516Z,99966.53
2018-11-04T01:05:54.240Z,99957.15
2018-11-04T01:08:22.014Z,99960.87
2018-11-04T01:10:49.563Z,99950.47
2018-11-04T01:13:17.146Z,99942.38
2018-11-04T01:15:45.817Z,99938.55
2018-11-04T01:18:15.438Z,99931.64
2018-11-04T01:20:43.040Z,99930.00
2018-11-04T01:23:10.603Z,99931.41
2018-11-04T01:25:38.142Z,99922.83
2018-11-04T01:28:05.710Z,99917.36
2018-11-04T01:30:33.237Z,99916.31
2018-11-04T01:33:00.830Z,99908.86
2018-11-04T01:35:28.432Z,99904.09
2018-11-04T01:37:56.154Z,99898.69
2018-11-04T01:40:23.772Z,99896.38
2018-11-04T01:42:51.428Z,99892.31
2018-11-04T01:45:19.062Z,99897.98
2018-11-04T01:47:46.640Z,99891.88
2018-11-04T01:50:14.313Z,99886.59
2018-11-04T01:52:41.895Z,99884.95
2018-11-04T01:55:09.481Z,99885.05
2018-11-04T01:57:37.042Z,99881.23
2018-11-04T02:00:04.632Z,99876.80
2018-11-04T02:02:32.147Z,99869.57
2018-11-04T02:04:59.735Z,99867.53
2018-11-04T02:07:27.280Z,99869.70
2018-11-04T02:09:54.869Z,99860.20
2018-11-04T02:12:22.406Z,99859.78
2018-11-04T02:14:49.969Z,99853.02
2018-11-04T02:17:17.539Z,99848.34
2018-11-04T02:19:45.138Z,99839.52
2018-11-04T02:22:12.713Z,99842.78
2018-11-04T02:24:40.250Z,99837.44
2018-11-04T02:27:07.808Z,99828.39
2018-11-04T02:29:35.348Z,99830.31
2018-11-04T02:32:02.958Z,99824.28
2018-11-04T02:34:30.529Z,99821.41
2018-11-04T02:36:58.255Z,99815.58
2018-11-04T02:39:25.837Z,99815.97
2018-11-04T02:41:53.383Z,99818.50
2018-11-04T02:44:20.993Z,99811.28
2018-11-04T02:46:48.624Z,99812.70
2018-11-04T02:49:16.165Z,99811.80
2018-11-04T02:51:43.683Z,99800.90
2018-11-04T02:54:11.367Z,99799.39
2018-11-04T02:56:39.137Z,99792.71
2018-11-04T02:59:06.670Z,99782.08
2018-11-04T03:01:34.228Z,99785.68
2018-11-04T03:04:01.788Z,99782.06
2018-11-04T03:06:29.432Z,99773.95
2018-11-04T03:08:57.067Z,99775.78
2018-11-04T03:11:24.607Z,99773.84
2018-11-04T03:13:52.268Z,99765.45
2018-11-04T03:16:20.691Z,99772.16
2018-11-04T03:18:48.393Z,99766.19
2018-11-04T03:21:15.925Z,99767.93
2018-11-04T03:23:43.658Z,99758.20
2018-11-04T03:26:11.200Z,99760.50
2018-11-04T03:28:38.908Z,99765.53
2018-11-04T03:31:06.629Z,99758.81
2018-11-04T03:33:34.548Z,99762.80
2018-11-04T03:36:02.151Z,99757.13
2018-11-04T03:38:29.735Z,99761.70
2018-11-04T03:40:57.364Z,99759.42
2018-11-04T03:43:24.875Z,99756.32
2018-11-04T03:45:52.436Z,99761.01
2018-11-04T03:48:20.050Z,99761.69
2018-11-04T03:50:47.586Z,99757.56
2018-11-04T03:53:15.346Z,99752.05
2018-11-04T03:55:43.023Z,99754.55
2018-11-04T03:58:10.616Z,99761.18
2018-11-04T04:00:38.248Z,99765.66
2018-11-04T04:03:05.797Z,99767.50
2018-11-04T04:05:33.419Z,99772.87
2018-11-04T04:08:00.962Z,99761.42
2018-11-04T04:10:29.273Z,99754.80
2018-11-04T04:12:56.853Z,99755.67
2018-11-04T04:15:25.494Z,99755.23
2018-11-04T04:17:53.066Z,99753.45
2018-11-04T04:20:20.666Z,99752.59
2018-11-04T04:22:48.238Z,99751.01
2018-11-04T04:25:15.813Z,99748.14
2018-11-04T04:27:43.356Z,99746.72
2018-11-04T04:30:10.940Z,99747.09
2018-11-04T04:32:38.584Z,99744.00
2018-11-04T04:35:06.180Z,99740.92
2018-11-04T04:37:33.831Z,99743.38
2018-11-04T04:40:01.400Z,99740.45
2018-11-04T04:42:29.288Z,99733.29
2018-11-04T04:44:56.974Z,99733.64
2018-11-04T04:47:24.600Z,99735.98
2018-11-04T04:49:52.125Z,99733.47
2018-11-04T04:52:19.705Z,99728.66
2018-11-04T04:54:47.275Z,99728.13
2018-11-04T04:57:14.868Z,99734.33
2018-11-04T04:59:42.464Z,99724.97
2018-11-04T05:02:10.054Z,99722.95
2018-11-04T05:04:37.748Z,99719.32
2018-11-04T05:07:05.320Z,99722.28
2018-11-04T05:09:32.987Z,99718.31
2018-11-04T05:12:00.526Z,99719.95
2018-11-04T05:14:28.235Z,99713.09
2018-11-04T05:16:55.804Z,99714.66
2018-11-04T05:19:23.337Z,99715.03
2018-11-04T05:21:50.906Z,99714.72
2018-11-04T05:24:18.687Z,99710.66
2018-11-04T05:26:46.209Z,99714.08
2018-11-04T05:29:13.891Z,99714.80
2018-11-04T05:31:41.461Z,99711.02
2018-11-04T05:34:09.025Z,99717.86
2018-11-04T05:36:36.599Z,99718.63
2018-11-04T05:39:04.150Z,99718.70
2018-11-04T05:41:31.669Z,99711.80
2018-11-04T05:43:59.240Z,99713.42
2018-11-04T05:46:26.866Z,99712.52
2018-11-04T05:48:54.423Z,99712.19
2018-11-04T05:51:21.973Z,99708.55
2018-11-04T05:53:49.545Z,99712.69
2018-11-04T05:56:17.098Z,99711.63
2018-11-04T05:58:44.687Z,99704.83
2018-11-04T06:01:12.377Z,99709.50
2018-11-04T06:03:40.363Z,99707.48
2018-11-04T06:06:07.937Z,99708.41
2018-11-04T06:08:35.491Z,99706.15
2018-11-04T06:11:03.131Z,99695.75
2018-11-04T06:13:30.680Z,99707.02
2018-11-04T06:15:58.391Z,99702.86
2018-11-04T06:18:25.917Z,99700.94
2018-11-04T06:20:53.909Z,99700.20
2018-11-04T06:23:21.466Z,99699.59
2018-11-04T06:25:49.042Z,99696.45
2018-11-04T06:28:16.590Z,99700.70
2018-11-04T06:30:44.347Z,99698.23
2018-11-04T06:33:11.877Z,99704.03
2018-11-04T06:35:39.439Z,99701.13
2018-11-04T06:38:06.999Z,99700.61
2018-11-04T06:40:34.800Z,99698.60
2018-11-04T06:43:02.349Z,99700.83
2018-11-04T06:45:29.913Z,99703.76
2018-11-04T06:47:57.507Z,99697.86
2018-11-04T06:50:25.096Z,99698.68
2018-11-04T06:52:52.714Z,99698.17
2018-11-04T06:55:20.268Z,99702.23
2018-11-04T06:57:47.826Z,99704.61
2018-11-04T07:00:15.379Z,99704.06
2018-11-04T07:02:43.124Z,99707.70
2018-11-04T07:05:11.246Z,99706.06
2018-11-04T07:07:42.637Z,99702.73
2018-11-04T07:10:10.725Z,99707.05
2018-11-04T07:12:38.726Z,99702.86
2018-11-04T07:15:06.293Z,99701.84
2018-11-04T07:17:33.920Z,99699.20
2018-11-04T07:20:01.539Z,99701.78
2018-11-04T07:22:29.142Z,99705.60
2018-11-04T07:24:56.742Z,99706.98
2018-11-04T07:27:24.368Z,99707.20
2018-11-04T07:29:52.239Z,99706.88
2018-11-04T07:32:20.010Z,99705.05
2018-11-04T07:34:47.685Z,99701.88
2018-11-04T07:37:15.900Z,99709.79
2018-11-04T07:39:43.866Z,99699.80
2018-11-04T07:42:11.705Z,99697.37
2018-11-04T07:44:39.354Z,99691.66
2018-11-04T07:47:06.984Z,99689.72
2018-11-04T07:49:34.670Z,99688.66
2018-11-04T07:52:02.311Z,99690.56
2018-11-04T07:54:30.134Z,99685.02
2018-11-04T07:56:58.057Z,99679.77
2018-11-04T07:59:25.697Z,99678.78
2018-11-04T08:01:53.676Z,99677.65
2018-11-04T08:04:21.300Z,99671.41
2018-11-04T08:06:50.361Z,99670.09
2018-11-04T08:09:18.570Z,99670.03
2018-11-04T08:11:46.354Z,99668.05
2018-11-04T08:14:13.934Z,99671.80
2018-11-04T08:16:41.895Z,99669.61
2018-11-04T08:19:09.595Z,99668.39
2018-11-04T08:21:37.243Z,99665.57
2018-11-04T08:24:05.032Z,99659.88
2018-11-04T08:26:32.766Z,99652.25
2018-11-04T08:29:00.538Z,99664.00
2018-11-04T08:31:28.245Z,99661.31
2018-11-04T08:33:56.037Z,99664.83
2018-11-04T08:36:23.841Z,99652.91
2018-11-04T08:38:51.423Z,99655.34
2018-11-04T08:41:19.085Z,99653.72
2018-11-04T08:43:46.844Z,99648.98
2018-11-04T08:46:14.672Z,99647.47
2018-11-04T08:48:42.544Z,99642.63
2018-11-04T08:51:10.098Z,99642.95
2018-11-04T08:53:37.702Z,99639.75
2018-11-04T08:56:05.268Z,99643.59
2018-11-04T08:58:32.834Z,99637.73
2018-11-04T09:01:00.368Z,99637.72
2018-11-04T09:03:27.988Z,99642.14
2018-11-04T09:05:55.519Z,99642.33
2018-11-04T09:08:23.051Z,99639.12
2018-11-04T09:10:50.700Z,99636.47
2018-11-04T09:13:18.444Z,99633.94
2018-11-04T09:15:46.000Z,99641.55
2018-11-04T09:18:13.569Z,99627.64
2018-11-04T09:20:41.102Z,99622.48
2018-11-04T09:23:08.709Z,99618.56
2018-11-04T09:25:36.277Z,99619.02
2018-11-04T09:28:03.866Z,99615.72
2018-11-04T09:30:31.534Z,99614.86
2018-11-04T09:32:59.065Z,99616.25
2018-11-04T09:35:26.995Z,99613.02
2018-11-04T09:37:54.404Z,99620.59
2018-11-04T09:40:21.938Z,99614.61
2018-11-04T09:42:49.517Z,99615.61
2018-11-04T09:45:17.083Z,99609.63
2018-11-04T09:47:44.599Z,99613.59
2018-11-04T09:50:12.144Z,99618.98
2018-11-04T09:52:39.736Z,99619.16
2018-11-04T09:55:07.407Z,99618.18
2018-11-04T09:57:35.143Z,99620.42
2018-11-04T10:00:02.994Z,99620.47
2018-11-04T10:02:30.665Z,99627.10
2018-11-04T10:04:58.311Z,99628.91
2018-11-04T10:07:25.894Z,99623.27
2018-11-04T10:09:53.691Z,99629.23
2018-11-04T10:12:21.424Z,99620.97
2018-11-04T10:14:49.010Z,99627.08
2018-11-04T10:17:16.560Z,99623.66
2018-11-04T10:19:44.305Z,99618.36
2018-11-04T10:22:11.739Z,99617.62
2018-11-04T10:24:39.325Z,99616.14
2018-11-04T10:27:06.840Z,99606.52
2018-11-04T10:29:34.382Z,99609.70
2018-11-04T10:32:01.980Z,99609.84
2018-11-04T10:34:29.576Z,99605.75
2018-11-04T10:36:57.099Z,99605.32
2018-11-04T10:39:24.665Z,99606.34
2018-11-04T10:41:52.254Z,99596.25
2018-11-04T10:44:19.855Z,99599.69
2018-11-04T10:46:47.529Z,99588.88
2018-11-04T10:49:15.231Z,99588.14
2018-11-04T10:51:42.815Z,99580.84
2018-11-04T10:54:10.341Z,99574.02
2018-11-04T10:56:37.881Z,99579.27
2018-11-04T10:59:05.930Z,99577.07
2018-11-04T11:01:33.524Z,99566.89
2018-11-04T11:04:01.174Z,99570.66
2018-11-04T11:06:28.889Z,99568.63
2018-11-04T11:08:56.422Z,99560.67
2018-11-04T11:11:23.999Z,99560.95
2018-11-04T11:13:51.541Z,99558.05
2018-11-04T11:16:19.366Z,99553.54
2018-11-04T11:18:47.132Z,99552.17
2018-11-04T11:21:14.904Z,99539.74
2018-11-04T11:23:42.682Z,99534.61
2018-11-04T11:26:10.261Z,99524.30
2018-11-04T11:28:37.811Z,99523.16
2018-11-04T11:31:05.377Z,99518.77
2018-11-04T11:33:32.974Z,99512.61
2018-11-04T11:36:00.513Z,99515.40
2018-11-04T11:38:28.144Z,99512.48
2018-11-04T11:40:59.137Z,99503.66
2018-11-04T11:43:26.758Z,99503.11
2018-11-04T11:45:54.379Z,99497.92
2018-11-04T11:48:21.997Z,99503.77
2018-11-04T11:50:49.591Z,99491.20
2018-11-04T11:53:17.200Z,99484.27
2018-11-04T11:55:44.835Z,99494.45
2018-11-04T11:58:12.366Z,99486.25
2018-11-04T12:00:40.121Z,99483.95
2018-11-04T12:03:07.705Z,99486.02
2018-11-04T12:05:35.327Z,99484.06
2018-11-04T12:08:02.903Z,99476.20
2018-11-04T12:10:30.558Z,99468.61
2018-11-04T12:12:58.097Z,99462.29
2018-11-04T12:15:25.673Z,99463.13
2018-11-04T12:17:53.309Z,99467.84
2018-11-04T12:20:20.870Z,99463.78
2018-11-04T12:22:48.664Z,99461.88
2018-11-04T12:25:16.541Z,99451.75
2018-11-04T12:27:44.125Z,99444.45
2018-11-04T12:30:11.745Z,99440.88
2018-11-04T12:32:39.324Z,99436.80
2018-11-04T12:35:06.967Z,99436.86
2018-11-04T12:37:34.545Z,99432.64
2018-11-04T12:40:02.197Z,99429.13
2018-11-04T12:42:29.960Z,99429.29
2018-11-04T12:44:57.571Z,99423.59
2018-11-04T12:47:25.088Z,99423.73
2018-11-04T12:49:52.618Z,99425.71
2018-11-04T12:52:20.508Z,99424.44
2018-11-04T12:54:48.028Z,99423.31
2018-11-04T12:57:15.608Z,99420.16
2018-11-04T12:59:43.173Z,99416.58
2018-11-04T13:02:10.947Z,99411.16
2018-11-04T13:04:38.408Z,99407.50
2018-11-04T13:07:06.006Z,99408.49
2018-11-04T13:09:33.717Z,99403.56
2018-11-04T13:12:01.283Z,99403.88
2018-11-04T13:14:28.825Z,99400.13
2018-11-04T13:16:56.552Z,99396.35
2018-11-04T13:19:24.125Z,99392.39
2018-11-04T13:21:51.782Z,99394.42
2018-11-04T13:24:19.304Z,99387.38
2018-11-04T13:26:46.894Z,99384.95
2018-11-04T13:29:14.432Z,99383.91
2018-11-04T13:31:42.013Z,99385.92
2018-11-04T13:34:09.597Z,99374.36
2018-11-04T13:36:37.140Z,99373.64
2018-11-04T13:39:04.741Z,99368.56
2018-11-04T13:41:32.343Z,99363.02
2018-11-04T13:43:59.992Z,99364.27
2018-11-04T13:46:27.574Z,99358.19
2018-11-04T13:48:55.131Z,99359.09
2018-11-04T13:51:22.815Z,99350.47
2018-11-04T13:53:50.438Z,99341.59
2018-11-04T13:56:18.087Z,99335.63
2018-11-04T13:58:45.690Z,99339.91
2018-11-04T14:01:13.291Z,99329.87
2018-11-04T14:03:40.834Z,99334.97
2018-11-04T14:06:08.420Z,99326.98
2018-11-04T14:08:35.960Z,99322.55
2018-11-04T14:11:03.506Z,99318.55
2018-11-04T14:13:31.131Z,99317.42
2018-11-04T14:15:58.699Z,99315.11
2018-11-04T14:18:26.234Z,99308.75
2018-11-04T14:20:59.831Z,99315.80
2018-11-04T14:31:22.444Z,99301.04
2018-11-04T14:33:50.188Z,99300.42
2018-11-04T14:36:17.761Z,99295.97
2018-11-04T14:38:45.316Z,99300.74
2018-11-04T14:41:12.926Z,99296.18
2018-11-04T14:43:45.466Z,99291.22
2018-11-04T14:46:13.041Z,99289.88
2018-11-04T14:48:40.767Z,99294.05
2018-11-04T14:51:22.173Z,99288.66
2018-11-04T14:59:23.424Z,99288.47
2018-11-04T15:01:51.066Z,99284.47
2018-11-04T15:04:18.566Z,99287.11
2018-11-04T15:06:46.178Z,99287.70
2018-11-04T15:09:19.493Z,99290.77
2018-11-04T15:14:38.868Z,99288.02
2018-11-04T15:17:06.445Z,99283.63
2018-11-04T15:19:34.048Z,99275.16
2018-11-04T15:22:01.635Z,99282.12
2018-11-04T15:24:29.217Z,99284.78
2018-11-04T15:26:56.803Z,99286.70
2018-11-04T15:29:24.376Z,99291.05
2018-11-04T15:31:51.915Z,99289.43
2018-11-04T15:34:19.577Z,99296.08
2018-11-04T15:36:47.087Z,99292.02
2018-11-04T15:39:14.670Z,99290.56
2018-11-04T15:41:42.259Z,99288.50
2018-11-04T15:44:09.805Z,99286.92
2018-11-04T15:46:37.383Z,99289.70
2018-11-04T15:49:05.020Z,99282.63
2018-11-04T15:51:33.241Z,99283.72
2018-11-04T15:54:01.929Z,99288.87
2018-11-04T15:56:29.989Z,99285.40
2018-11-04T15:58:58.421Z,99287.70
2018-11-04T16:01:26.260Z,99288.52
2018-11-04T16:03:53.943Z,99280.89
2018-11-04T16:06:21.552Z,99287.40
2018-11-04T16:08:49.115Z,99291.48
2018-11-04T16:11:16.971Z,99288.87
2018-11-04T16:13:44.628Z,99288.81
2018-11-04T16:16:12.353Z,99279.61
2018-11-04T16:18:40.094Z,99277.80
2018-11-04T16:21:07.670Z,99280.81
2018-11-04T16:23:35.713Z,99278.30
2018-11-04T16:26:03.634Z,99272.88
2018-11-04T16:28:31.340Z,99277.83
2018-11-04T16:30:58.942Z,99276.02
2018-11-04T16:33:26.686Z,99272.94
2018-11-04T16:35:54.211Z,99274.62
2018-11-04T16:38:22.845Z,99273.84
2018-11-04T16:40:50.419Z,99279.31
2018-11-04T16:43:18.470Z,99279.61
2018-11-04T16:45:46.240Z,99284.02
2018-11-04T16:48:14.071Z,99277.87
2018-11-04T16:50:46.171Z,99278.09
2018-11-04T16:53:14.655Z,99278.99
2018-11-04T17:01:04.233Z,99284.25
2018-11-04T17:03:34.163Z,99285.17
2018-11-04T17:06:01.827Z,99285.38
2018-11-04T17:08:29.423Z,99290.00
2018-11-04T17:10:57.047Z,99292.27
2018-11-04T17:13:24.622Z,99287.90
2018-11-04T17:15:52.313Z,99282.63
2018-11-04T17:18:20.028Z,99273.70
2018-11-04T17:20:47.566Z,99273.62
2018-11-04T17:23:15.179Z,99273.38
2018-11-04T17:25:42.802Z,99272.88
2018-11-04T17:28:10.401Z,99269.66
2018-11-04T17:30:38.024Z,99263.77
2018-11-04T17:33:05.766Z,99271.31
2018-11-04T17:35:33.348Z,99270.36
2018-11-04T17:38:00.977Z,99270.07
2018-11-04T17:40:28.528Z,99270.27
2018-11-04T17:42:56.209Z,99267.42
2018-11-04T17:45:23.775Z,99260.41
2018-11-04T17:47:51.364Z,99264.30
2018-11-04T17:50:18.903Z,99275.57
2018-11-04T17:52:46.460Z,99280.98
2018-11-04T17:55:14.018Z,99279.77
2018-11-04T17:57:41.541Z,99270.58
2018-11-04T18:00:09.129Z,99274.53
2018-11-04T18:02:36.812Z,99268.97
2018-11-04T18:05:04.407Z,99261.23
2018-11-04T18:07:32.178Z,99257.72
2018-11-04T18:09:59.832Z,99257.26
2018-11-04T18:12:27.569Z,99249.88
2018-11-04T18:14:55.294Z,99243.98
2018-11-04T18:17:22.866Z,99247.77
2018-11-04T18:19:50.604Z,99244.32
2018-11-04T18:22:18.364Z,99242.94
2018-11-04T18:24:45.903Z,99250.29
2018-11-04T18:27:13.490Z,99242.23
2018-11-04T18:29:41.046Z,99233.05
2018-11-04T18:32:08.692Z,99233.83
2018-11-04T18:34:36.195Z,99238.09
2018-11-04T18:37:03.772Z,99229.97
2018-11-04T18:39:31.285Z,99235.53
2018-11-04T18:41:58.906Z,99238.31
2018-11-04T18:44:26.510Z,99236.84
2018-11-04T18:46:54.026Z,99241.19
2018-11-04T18:49:21.572Z,99236.85
2018-11-04T18:51:49.331Z,99236.50
2018-11-04T18:54:16.895Z,99230.03
2018-11-04T18:56:44.425Z,99229.78
2018-11-04T18:59:12.067Z,99229.98
2018-11-04T19:01:39.579Z,99244.22
2018-11-04T19:04:07.131Z,99242.45
2018-11-04T19:06:34.747Z,99236.57
2018-11-04T19:09:02.290Z,99228.30
2018-11-04T19:11:30.004Z,99235.80
2018-11-04T19:13:57.708Z,99223.39
2018-11-04T19:16:25.529Z,99234.13
2018-11-04T19:18:53.390Z,99233.42
2018-11-04T19:21:20.989Z,99231.80
2018-11-04T19:23:48.555Z,99220.80
2018-11-04T19:26:16.317Z,99215.33
2018-11-04T19:28:44.490Z,99212.47
2018-11-04T19:31:12.214Z,99210.48
2018-11-04T19:33:43.388Z,99208.73
2018-11-04T19:36:11.003Z,99204.38
2018-11-04T19:38:38.557Z,99194.84
2018-11-04T19:41:06.186Z,99196.42
2018-11-04T19:43:33.779Z,99200.37
2018-11-04T19:46:01.322Z,99204.59
2018-11-04T19:48:30.134Z,99202.80
2018-11-04T19:50:57.936Z,99191.85
2018-11-04T19:53:25.683Z,99203.13
2018-11-04T19:55:55.661Z,99205.31
2018-11-04T19:58:23.325Z,99203.49
2018-11-04T20:00:54.730Z,99197.31
2018-11-04T20:03:22.318Z,99197.16
2018-11-04T20:05:50.016Z,99200.05
2018-11-04T20:08:17.582Z,99199.70
2018-11-04T20:10:46.549Z,99200.17
2018-11-04T20:13:14.228Z,99186.73
2018-11-04T20:15:41.776Z,99184.00
2018-11-04T20:18:09.353Z,99188.39
2018-11-04T20:20:36.936Z,99187.20
2018-11-04T20:23:04.519Z,99182.64
2018-11-04T20:25:37.711Z,99181.04
2018-11-04T20:28:06.623Z,99194.81
2018-11-04T20:30:34.153Z,99184.95
2018-11-04T20:33:01.725Z,99184.17
2018-11-04T20:35:29.276Z,99181.66
2018-11-04T20:37:56.860Z,99188.19
2018-11-04T20:40:39.285Z,99189.38
2018-11-04T20:43:06.897Z,99195.83
2018-11-04T20:45:34.425Z,99194.55
2018-11-04T20:48:02.044Z,99179.67
2018-11-04T20:50:46.249Z,99178.52
2018-11-04T20:53:14.420Z,99177.95
2018-11-04T20:55:42.225Z,99172.88
2018-11-04T20:58:09.869Z,99185.43
2018-11-04T21:00:37.432Z,99184.15
2018-11-04T21:03:09.628Z,99173.66
2018-11-04T21:05:37.179Z,99175.84
2018-11-04T21:08:04.793Z,99171.89
2018-11-04T21:10:32.344Z,99165.00
2018-11-04T21:13:00.117Z,99169.80
2018-11-04T21:15:27.680Z,99163.98
2018-11-04T21:17:55.442Z,99152.47
2018-11-04T21:20:23.069Z,99151.56
2018-11-04T21:22:50.730Z,99146.45
2018-11-04T21:25:18.347Z,99144.88
2018-11-04T21:27:45.924Z,99153.93
2018-11-04T21:30:13.668Z,99148.53
2018-11-04T21:32:41.237Z,99145.75
2018-11-04T21:35:08.791Z,99144.69
2018-11-04T21:37:36.367Z,99153.51
2018-11-04T21:40:04.169Z,99149.84
2018-11-04T21:42:32.147Z,99154.37
2018-11-04T21:44:59.712Z,99147.73
2018-11-04T21:47:29.260Z,99152.42
2018-11-04T21:49:56.856Z,99137.69
2018-11-04T21:52:24.391Z,99131.80
2018-11-04T21:54:53.931Z,99132.69
2018-11-04T21:57:21.478Z,99137.52
2018-11-04T21:59:49.057Z,99138.11
2018-11-04T22:02:16.851Z,99129.98
2018-11-04T22:04:44.773Z,99117.30
2018-11-04T22:07:12.388Z,99115.39
2018-11-04T22:09:39.948Z,99106.91
2018-11-04T22:12:07.523Z,99107.30
2018-11-04T22:14:35.100Z,99102.06
2018-11-04T22:17:03.682Z,99098.45
2018-11-04T22:19:31.272Z,99085.00
2018-11-04T22:21:58.799Z,99089.52
2018-11-04T22:24:26.356Z,99098.88
2018-11-04T22:26:53.923Z,99085.02
2018-11-04T22:29:21.466Z,99079.72
2018-11-04T22:31:48.989Z,99080.81
2018-11-04T22:34:16.560Z,99079.72
2018-11-04T22:36:44.200Z,99078.30
2018-11-04T22:39:11.701Z,99074.55
2018-11-04T22:41:39.278Z,99068.02
2018-11-04T22:44:06.984Z,99059.62
2018-11-04T22:46:34.758Z,99065.91
2018-11-04T22:49:02.294Z,99071.79
2018-11-04T22:51:29.989Z,99082.38
2018-11-04T22:53:57.562Z,99077.53
2018-11-04T22:56:25.124Z,99083.72
2018-11-04T22:58:52.700Z,99088.06
2018-11-04T23:01:20.263Z,99086.58
2018-11-04T23:03:47.878Z,99082.23
2018-11-04T23:06:15.404Z,99091.61
2018-11-04T23:08:43.093Z,99085.39
2018-11-04T23:11:10.700Z,99079.45
2018-11-04T23:13:38.346Z,99076.95
2018-11-04T23:16:05.876Z,99071.56
2018-11-04T23:18:33.663Z,99074.45
2018-11-04T23:21:01.145Z,99072.58
2018-11-04T23:23:28.684Z,99072.22
2018-11-04T23:25:56.255Z,99082.42
2018-11-04T23:28:24.032Z,99086.74
2018-11-04T23:30:51.543Z,99077.63
2018-11-04T23:33:19.142Z,99072.30
2018-11-04T23:35:49.525Z,99063.03
2018-11-04T23:38:17.067Z,99070.50
2018-11-04T23:40:44.627Z,99078.67
2018-11-04T23:43:12.190Z,99077.63
2018-11-04T23:45:39.905Z,99067.03
2018-11-04T23:48:07.467Z,99068.67
2018-11-04T23:50:35.093Z,99062.38
2018-11-04T23:53:02.675Z,99056.08
2018-11-04T23:55:30.266Z,99045.77
2018-11-04T23:57:57.852Z,99045.30
